sensor_id;sensor_type;location;lat;lon;timestamp;P1;durP1;ratioP1;P2;durP2;ratioP2
77109;SDS011;66062;52.464;16.922;2023-08-21T00:00:02;8.27;;;5.80;;
77109;SDS011;66062;52.464;16.922;2023-08-21T00:04:54;11.50;;;5.82;;
77109;SDS011;66062;52.464;16.922;2023-08-21T00:07:20;9.73;;;6.03;;
77109;SDS011;66062;52.464;16.922;2023-08-21T00:09:45;9.13;;;5.63;;
77109;SDS011;66062;52.464;16.922;2023-08-21T00:12:11;9.43;;;5.38;;
77109;SDS011;66062;52.464;16.922;2023-08-21T00:14:36;10.23;;;5.65;;
77109;SDS011;66062;52.464;16.922;2023-08-21T00:17:02;6.72;;;4.95;;
77109;SDS011;66062;52.464;16.922;2023-08-21T00:19:29;11.95;;;6.32;;
77109;SDS011;66062;52.464;16.922;2023-08-21T00:21:55;8.00;;;5.35;;
77109;SDS011;66062;52.464;16.922;2023-08-21T00:24:21;8.10;;;5.47;;
77109;SDS011;66062;52.464;16.922;2023-08-21T00:26:46;10.70;;;5.47;;
77109;SDS011;66062;52.464;16.922;2023-08-21T00:29:12;7.18;;;5.30;;
77109;SDS011;66062;52.464;16.922;2023-08-21T00:31:37;9.60;;;5.50;;
77109;SDS011;66062;52.464;16.922;2023-08-21T00:34:03;8.48;;;5.28;;
77109;SDS011;66062;52.464;16.922;2023-08-21T00:36:28;8.73;;;5.13;;
77109;SDS011;66062;52.464;16.922;2023-08-21T00:38:54;6.13;;;4.28;;
77109;SDS011;66062;52.464;16.922;2023-08-21T00:41:19;11.48;;;5.28;;
77109;SDS011;66062;52.464;16.922;2023-08-21T00:43:44;12.70;;;6.05;;
77109;SDS011;66062;52.464;16.922;2023-08-21T00:46:10;8.63;;;4.88;;
77109;SDS011;66062;52.464;16.922;2023-08-21T00:48:35;7.50;;;5.32;;
77109;SDS011;66062;52.464;16.922;2023-08-21T00:51:02;6.97;;;5.03;;
77109;SDS011;66062;52.464;16.922;2023-08-21T00:53:28;7.40;;;5.38;;
77109;SDS011;66062;52.464;16.922;2023-08-21T00:55:54;7.72;;;5.28;;
77109;SDS011;66062;52.464;16.922;2023-08-21T00:58:20;8.40;;;5.18;;
77109;SDS011;66062;52.464;16.922;2023-08-21T01:00:45;8.70;;;5.20;;
77109;SDS011;66062;52.464;16.922;2023-08-21T01:03:14;9.18;;;5.10;;
77109;SDS011;66062;52.464;16.922;2023-08-21T01:05:39;10.65;;;4.80;;
77109;SDS011;66062;52.464;16.922;2023-08-21T01:08:06;8.98;;;5.60;;
77109;SDS011;66062;52.464;16.922;2023-08-21T01:13:14;8.18;;;4.85;;
77109;SDS011;66062;52.464;16.922;2023-08-21T01:15:57;8.15;;;5.18;;
77109;SDS011;66062;52.464;16.922;2023-08-21T01:18:24;9.13;;;4.88;;
77109;SDS011;66062;52.464;16.922;2023-08-21T01:20:52;7.63;;;5.50;;
77109;SDS011;66062;52.464;16.922;2023-08-21T01:23:30;8.65;;;4.85;;
77109;SDS011;66062;52.464;16.922;2023-08-21T01:25:59;8.05;;;5.03;;
77109;SDS011;66062;52.464;16.922;2023-08-21T01:28:25;7.22;;;5.15;;
77109;SDS011;66062;52.464;16.922;2023-08-21T01:30:52;8.32;;;4.93;;
77109;SDS011;66062;52.464;16.922;2023-08-21T01:33:45;7.95;;;5.18;;
77109;SDS011;66062;52.464;16.922;2023-08-21T01:36:13;8.52;;;5.22;;
77109;SDS011;66062;52.464;16.922;2023-08-21T01:38:39;8.85;;;4.75;;
77109;SDS011;66062;52.464;16.922;2023-08-21T01:41:05;9.50;;;4.38;;
77109;SDS011;66062;52.464;16.922;2023-08-21T01:43:31;7.07;;;4.28;;
77109;SDS011;66062;52.464;16.922;2023-08-21T01:45:56;6.82;;;3.80;;
77109;SDS011;66062;52.464;16.922;2023-08-21T01:48:22;7.70;;;4.50;;
77109;SDS011;66062;52.464;16.922;2023-08-21T01:50:47;6.22;;;3.92;;
77109;SDS011;66062;52.464;16.922;2023-08-21T01:53:12;7.47;;;4.20;;
77109;SDS011;66062;52.464;16.922;2023-08-21T01:55:38;8.55;;;4.32;;
77109;SDS011;66062;52.464;16.922;2023-08-21T01:58:03;7.93;;;4.38;;
77109;SDS011;66062;52.464;16.922;2023-08-21T02:00:29;12.95;;;4.22;;
77109;SDS011;66062;52.464;16.922;2023-08-21T02:02:54;6.43;;;4.32;;
77109;SDS011;66062;52.464;16.922;2023-08-21T02:05:20;9.07;;;5.03;;
77109;SDS011;66062;52.464;16.922;2023-08-21T02:07:45;9.25;;;4.13;;
77109;SDS011;66062;52.464;16.922;2023-08-21T02:10:11;7.38;;;3.83;;
77109;SDS011;66062;52.464;16.922;2023-08-21T02:12:36;6.95;;;4.15;;
77109;SDS011;66062;52.464;16.922;2023-08-21T02:15:02;6.57;;;4.00;;
77109;SDS011;66062;52.464;16.922;2023-08-21T02:17:27;8.00;;;4.20;;
77109;SDS011;66062;52.464;16.922;2023-08-21T02:19:53;9.27;;;4.38;;
77109;SDS011;66062;52.464;16.922;2023-08-21T02:22:18;6.65;;;4.15;;
77109;SDS011;66062;52.464;16.922;2023-08-21T02:24:43;7.55;;;4.28;;
77109;SDS011;66062;52.464;16.922;2023-08-21T02:27:09;5.43;;;3.70;;
77109;SDS011;66062;52.464;16.922;2023-08-21T02:29:34;6.88;;;3.95;;
77109;SDS011;66062;52.464;16.922;2023-08-21T02:31:59;49.92;;;32.03;;
77109;SDS011;66062;52.464;16.922;2023-08-21T02:34:25;64.78;;;39.70;;
77109;SDS011;66062;52.464;16.922;2023-08-21T02:36:51;8.45;;;5.40;;
77109;SDS011;66062;52.464;16.922;2023-08-21T02:39:17;9.18;;;4.60;;
77109;SDS011;66062;52.464;16.922;2023-08-21T02:41:42;7.63;;;4.60;;
77109;SDS011;66062;52.464;16.922;2023-08-21T02:44:08;7.05;;;4.32;;
77109;SDS011;66062;52.464;16.922;2023-08-21T02:46:33;8.25;;;4.15;;
77109;SDS011;66062;52.464;16.922;2023-08-21T02:51:25;7.07;;;4.43;;
77109;SDS011;66062;52.464;16.922;2023-08-21T02:53:50;31.63;;;18.00;;
77109;SDS011;66062;52.464;16.922;2023-08-21T02:56:16;8.65;;;4.57;;
77109;SDS011;66062;52.464;16.922;2023-08-21T02:58:41;6.50;;;4.13;;
77109;SDS011;66062;52.464;16.922;2023-08-21T03:01:07;7.53;;;4.80;;
77109;SDS011;66062;52.464;16.922;2023-08-21T03:03:32;8.63;;;4.80;;
77109;SDS011;66062;52.464;16.922;2023-08-21T03:05:59;12.38;;;4.43;;
77109;SDS011;66062;52.464;16.922;2023-08-21T03:08:24;8.80;;;4.38;;
77109;SDS011;66062;52.464;16.922;2023-08-21T03:10:49;7.13;;;3.97;;
77109;SDS011;66062;52.464;16.922;2023-08-21T03:13:15;7.40;;;3.92;;
77109;SDS011;66062;52.464;16.922;2023-08-21T03:15:40;7.90;;;4.25;;
77109;SDS011;66062;52.464;16.922;2023-08-21T03:18:06;7.65;;;4.40;;
77109;SDS011;66062;52.464;16.922;2023-08-21T03:20:31;7.18;;;4.35;;
77109;SDS011;66062;52.464;16.922;2023-08-21T03:22:56;32.22;;;20.15;;
77109;SDS011;66062;52.464;16.922;2023-08-21T03:25:22;13.23;;;8.48;;
77109;SDS011;66062;52.464;16.922;2023-08-21T03:27:47;9.23;;;5.22;;
77109;SDS011;66062;52.464;16.922;2023-08-21T03:30:14;10.88;;;4.78;;
77109;SDS011;66062;52.464;16.922;2023-08-21T03:32:40;11.38;;;4.45;;
77109;SDS011;66062;52.464;16.922;2023-08-21T03:35:06;9.45;;;5.10;;
77109;SDS011;66062;52.464;16.922;2023-08-21T03:37:31;7.15;;;4.60;;
77109;SDS011;66062;52.464;16.922;2023-08-21T03:39:57;7.75;;;4.72;;
77109;SDS011;66062;52.464;16.922;2023-08-21T03:42:22;7.90;;;4.60;;
77109;SDS011;66062;52.464;16.922;2023-08-21T03:44:47;9.57;;;4.57;;
77109;SDS011;66062;52.464;16.922;2023-08-21T03:47:15;9.48;;;5.20;;
77109;SDS011;66062;52.464;16.922;2023-08-21T03:49:43;8.50;;;4.78;;
77109;SDS011;66062;52.464;16.922;2023-08-21T03:52:09;7.75;;;4.53;;
77109;SDS011;66062;52.464;16.922;2023-08-21T03:54:34;8.63;;;4.70;;
77109;SDS011;66062;52.464;16.922;2023-08-21T03:56:59;7.20;;;4.68;;
77109;SDS011;66062;52.464;16.922;2023-08-21T03:59:25;8.73;;;5.43;;
77109;SDS011;66062;52.464;16.922;2023-08-21T04:01:52;10.80;;;4.97;;
77109;SDS011;66062;52.464;16.922;2023-08-21T04:04:18;9.55;;;5.03;;
77109;SDS011;66062;52.464;16.922;2023-08-21T04:06:44;10.73;;;4.97;;
77109;SDS011;66062;52.464;16.922;2023-08-21T04:09:09;9.70;;;4.97;;
77109;SDS011;66062;52.464;16.922;2023-08-21T04:11:35;9.02;;;4.90;;
77109;SDS011;66062;52.464;16.922;2023-08-21T04:14:01;10.50;;;5.57;;
77109;SDS011;66062;52.464;16.922;2023-08-21T04:16:27;11.55;;;5.45;;
77109;SDS011;66062;52.464;16.922;2023-08-21T04:18:53;10.00;;;4.88;;
77109;SDS011;66062;52.464;16.922;2023-08-21T04:21:19;13.43;;;5.38;;
77109;SDS011;66062;52.464;16.922;2023-08-21T04:23:44;10.75;;;5.57;;
77109;SDS011;66062;52.464;16.922;2023-08-21T04:26:11;10.57;;;5.40;;
77109;SDS011;66062;52.464;16.922;2023-08-21T04:28:37;12.70;;;4.90;;
77109;SDS011;66062;52.464;16.922;2023-08-21T04:31:06;10.48;;;5.72;;
77109;SDS011;66062;52.464;16.922;2023-08-21T04:33:32;12.88;;;6.05;;
77109;SDS011;66062;52.464;16.922;2023-08-21T04:35:58;13.75;;;6.28;;
77109;SDS011;66062;52.464;16.922;2023-08-21T04:38:24;11.45;;;6.53;;
77109;SDS011;66062;52.464;16.922;2023-08-21T04:40:49;12.07;;;5.53;;
77109;SDS011;66062;52.464;16.922;2023-08-21T04:43:15;11.52;;;5.95;;
77109;SDS011;66062;52.464;16.922;2023-08-21T04:45:47;11.63;;;6.25;;
77109;SDS011;66062;52.464;16.922;2023-08-21T04:48:19;9.02;;;6.28;;
77109;SDS011;66062;52.464;16.922;2023-08-21T04:50:45;9.85;;;6.00;;
77109;SDS011;66062;52.464;16.922;2023-08-21T04:53:11;12.05;;;5.93;;
77109;SDS011;66062;52.464;16.922;2023-08-21T04:55:37;11.50;;;5.43;;
77109;SDS011;66062;52.464;16.922;2023-08-21T04:58:05;8.90;;;5.30;;
77109;SDS011;66062;52.464;16.922;2023-08-21T05:00:31;9.80;;;4.88;;
77109;SDS011;66062;52.464;16.922;2023-08-21T05:02:56;7.45;;;5.35;;
77109;SDS011;66062;52.464;16.922;2023-08-21T05:05:21;6.97;;;4.78;;
77109;SDS011;66062;52.464;16.922;2023-08-21T05:07:47;8.90;;;4.97;;
77109;SDS011;66062;52.464;16.922;2023-08-21T05:10:12;9.82;;;5.40;;
77109;SDS011;66062;52.464;16.922;2023-08-21T05:12:37;7.95;;;4.72;;
77109;SDS011;66062;52.464;16.922;2023-08-21T05:15:03;7.47;;;4.97;;
77109;SDS011;66062;52.464;16.922;2023-08-21T05:17:28;10.88;;;5.32;;
77109;SDS011;66062;52.464;16.922;2023-08-21T05:19:54;8.82;;;5.30;;
77109;SDS011;66062;52.464;16.922;2023-08-21T05:22:20;11.15;;;4.80;;
77109;SDS011;66062;52.464;16.922;2023-08-21T05:24:46;8.35;;;5.43;;
77109;SDS011;66062;52.464;16.922;2023-08-21T05:27:11;9.55;;;4.72;;
77109;SDS011;66062;52.464;16.922;2023-08-21T05:29:43;7.70;;;4.95;;
77109;SDS011;66062;52.464;16.922;2023-08-21T05:32:09;8.43;;;5.32;;
77109;SDS011;66062;52.464;16.922;2023-08-21T05:34:35;9.23;;;4.72;;
77109;SDS011;66062;52.464;16.922;2023-08-21T05:37:00;8.18;;;4.28;;
77109;SDS011;66062;52.464;16.922;2023-08-21T05:39:26;10.52;;;4.45;;
77109;SDS011;66062;52.464;16.922;2023-08-21T05:41:51;10.05;;;4.25;;
77109;SDS011;66062;52.464;16.922;2023-08-21T05:44:17;10.15;;;4.80;;
77109;SDS011;66062;52.464;16.922;2023-08-21T05:46:43;8.15;;;4.10;;
77109;SDS011;66062;52.464;16.922;2023-08-21T05:49:08;7.30;;;4.18;;
77109;SDS011;66062;52.464;16.922;2023-08-21T05:51:34;7.43;;;3.70;;
77109;SDS011;66062;52.464;16.922;2023-08-21T05:54:00;7.93;;;3.55;;
77109;SDS011;66062;52.464;16.922;2023-08-21T05:56:25;6.82;;;3.85;;
77109;SDS011;66062;52.464;16.922;2023-08-21T05:58:51;9.38;;;4.15;;
77109;SDS011;66062;52.464;16.922;2023-08-21T06:01:16;7.70;;;3.30;;
77109;SDS011;66062;52.464;16.922;2023-08-21T06:03:42;4.68;;;2.70;;
77109;SDS011;66062;52.464;16.922;2023-08-21T06:06:08;6.88;;;3.28;;
77109;SDS011;66062;52.464;16.922;2023-08-21T06:08:33;5.55;;;2.60;;
77109;SDS011;66062;52.464;16.922;2023-08-21T06:10:59;5.68;;;2.67;;
77109;SDS011;66062;52.464;16.922;2023-08-21T06:13:24;3.88;;;2.03;;
77109;SDS011;66062;52.464;16.922;2023-08-21T06:15:50;6.38;;;2.58;;
77109;SDS011;66062;52.464;16.922;2023-08-21T06:18:15;4.00;;;1.73;;
77109;SDS011;66062;52.464;16.922;2023-08-21T06:20:44;4.65;;;1.90;;
77109;SDS011;66062;52.464;16.922;2023-08-21T06:23:10;4.20;;;1.80;;
77109;SDS011;66062;52.464;16.922;2023-08-21T06:25:36;5.25;;;2.05;;
77109;SDS011;66062;52.464;16.922;2023-08-21T06:28:02;4.57;;;1.90;;
77109;SDS011;66062;52.464;16.922;2023-08-21T06:30:27;7.43;;;2.03;;
77109;SDS011;66062;52.464;16.922;2023-08-21T06:32:53;4.10;;;1.70;;
77109;SDS011;66062;52.464;16.922;2023-08-21T06:35:19;4.38;;;1.85;;
77109;SDS011;66062;52.464;16.922;2023-08-21T06:37:45;4.75;;;1.95;;
77109;SDS011;66062;52.464;16.922;2023-08-21T06:40:10;6.00;;;1.77;;
77109;SDS011;66062;52.464;16.922;2023-08-21T06:42:36;3.38;;;1.63;;
77109;SDS011;66062;52.464;16.922;2023-08-21T06:45:02;5.43;;;1.35;;
77109;SDS011;66062;52.464;16.922;2023-08-21T06:47:29;3.25;;;1.10;;
77109;SDS011;66062;52.464;16.922;2023-08-21T06:49:54;3.08;;;1.20;;
77109;SDS011;66062;52.464;16.922;2023-08-21T06:52:20;3.75;;;1.38;;
77109;SDS011;66062;52.464;16.922;2023-08-21T06:54:45;5.67;;;1.53;;
77109;SDS011;66062;52.464;16.922;2023-08-21T06:57:11;5.07;;;1.50;;
77109;SDS011;66062;52.464;16.922;2023-08-21T06:59:36;7.07;;;1.92;;
77109;SDS011;66062;52.464;16.922;2023-08-21T07:02:03;5.40;;;1.65;;
77109;SDS011;66062;52.464;16.922;2023-08-21T07:04:28;5.78;;;1.90;;
77109;SDS011;66062;52.464;16.922;2023-08-21T07:06:54;5.68;;;2.30;;
77109;SDS011;66062;52.464;16.922;2023-08-21T07:09:19;4.03;;;1.65;;
77109;SDS011;66062;52.464;16.922;2023-08-21T07:11:45;5.05;;;1.77;;
77109;SDS011;66062;52.464;16.922;2023-08-21T07:14:11;5.80;;;1.90;;
77109;SDS011;66062;52.464;16.922;2023-08-21T07:16:39;5.95;;;2.22;;
77109;SDS011;66062;52.464;16.922;2023-08-21T07:19:04;7.90;;;1.70;;
77109;SDS011;66062;52.464;16.922;2023-08-21T07:21:30;3.60;;;1.80;;
77109;SDS011;66062;52.464;16.922;2023-08-21T07:23:55;5.53;;;2.00;;
77109;SDS011;66062;52.464;16.922;2023-08-21T07:26:21;3.17;;;1.58;;
77109;SDS011;66062;52.464;16.922;2023-08-21T07:28:47;5.60;;;2.13;;
77109;SDS011;66062;52.464;16.922;2023-08-21T07:31:12;3.10;;;1.80;;
77109;SDS011;66062;52.464;16.922;2023-08-21T07:33:37;5.70;;;1.88;;
77109;SDS011;66062;52.464;16.922;2023-08-21T07:36:03;4.90;;;1.98;;
77109;SDS011;66062;52.464;16.922;2023-08-21T07:38:30;6.30;;;2.30;;
77109;SDS011;66062;52.464;16.922;2023-08-21T07:41:06;4.50;;;1.88;;
77109;SDS011;66062;52.464;16.922;2023-08-21T07:46:02;6.20;;;1.80;;
77109;SDS011;66062;52.464;16.922;2023-08-21T07:48:28;7.35;;;1.80;;
77109;SDS011;66062;52.464;16.922;2023-08-21T07:53:19;3.92;;;1.77;;
77109;SDS011;66062;52.464;16.922;2023-08-21T07:58:11;6.47;;;2.03;;
77109;SDS011;66062;52.464;16.922;2023-08-21T08:00:37;3.97;;;1.67;;
77109;SDS011;66062;52.464;16.922;2023-08-21T08:03:03;5.32;;;1.70;;
77109;SDS011;66062;52.464;16.922;2023-08-21T08:05:30;3.80;;;1.33;;
77109;SDS011;66062;52.464;16.922;2023-08-21T08:07:56;4.75;;;1.90;;
77109;SDS011;66062;52.464;16.922;2023-08-21T08:10:21;4.05;;;1.45;;
77109;SDS011;66062;52.464;16.922;2023-08-21T08:12:47;4.25;;;1.83;;
77109;SDS011;66062;52.464;16.922;2023-08-21T08:15:12;3.47;;;1.42;;
77109;SDS011;66062;52.464;16.922;2023-08-21T08:17:38;4.05;;;1.65;;
77109;SDS011;66062;52.464;16.922;2023-08-21T08:20:03;5.88;;;1.90;;
77109;SDS011;66062;52.464;16.922;2023-08-21T08:22:31;5.82;;;2.10;;
77109;SDS011;66062;52.464;16.922;2023-08-21T08:24:56;3.25;;;1.60;;
77109;SDS011;66062;52.464;16.922;2023-08-21T08:27:22;7.53;;;1.63;;
77109;SDS011;66062;52.464;16.922;2023-08-21T08:29:47;4.57;;;1.70;;
77109;SDS011;66062;52.464;16.922;2023-08-21T08:32:12;4.15;;;1.50;;
77109;SDS011;66062;52.464;16.922;2023-08-21T08:34:38;5.35;;;1.77;;
77109;SDS011;66062;52.464;16.922;2023-08-21T08:37:03;3.25;;;1.33;;
77109;SDS011;66062;52.464;16.922;2023-08-21T08:39:28;4.93;;;2.03;;
77109;SDS011;66062;52.464;16.922;2023-08-21T08:41:56;5.47;;;1.77;;
77109;SDS011;66062;52.464;16.922;2023-08-21T08:44:27;4.25;;;1.60;;
77109;SDS011;66062;52.464;16.922;2023-08-21T08:46:52;6.85;;;1.85;;
77109;SDS011;66062;52.464;16.922;2023-08-21T08:49:18;4.28;;;2.22;;
77109;SDS011;66062;52.464;16.922;2023-08-21T08:51:45;4.10;;;1.98;;
77109;SDS011;66062;52.464;16.922;2023-08-21T08:54:14;6.40;;;1.80;;
77109;SDS011;66062;52.464;16.922;2023-08-21T08:56:43;6.80;;;1.92;;
77109;SDS011;66062;52.464;16.922;2023-08-21T08:59:08;7.55;;;1.75;;
77109;SDS011;66062;52.464;16.922;2023-08-21T09:01:34;4.10;;;1.65;;
77109;SDS011;66062;52.464;16.922;2023-08-21T09:04:01;3.55;;;1.50;;
77109;SDS011;66062;52.464;16.922;2023-08-21T09:06:27;4.55;;;1.55;;
77109;SDS011;66062;52.464;16.922;2023-08-21T09:08:53;2.50;;;1.33;;
77109;SDS011;66062;52.464;16.922;2023-08-21T09:11:20;2.80;;;1.30;;
77109;SDS011;66062;52.464;16.922;2023-08-21T09:13:46;6.72;;;1.83;;
77109;SDS011;66062;52.464;16.922;2023-08-21T09:16:14;5.28;;;1.30;;
77109;SDS011;66062;52.464;16.922;2023-08-21T09:18:48;3.72;;;1.73;;
77109;SDS011;66062;52.464;16.922;2023-08-21T09:21:21;5.13;;;1.30;;
77109;SDS011;66062;52.464;16.922;2023-08-21T09:23:48;4.13;;;1.50;;
77109;SDS011;66062;52.464;16.922;2023-08-21T09:26:21;4.53;;;1.60;;
77109;SDS011;66062;52.464;16.922;2023-08-21T09:28:50;4.00;;;1.50;;
77109;SDS011;66062;52.464;16.922;2023-08-21T09:31:21;3.28;;;1.20;;
77109;SDS011;66062;52.464;16.922;2023-08-21T09:34:22;5.55;;;1.70;;
77109;SDS011;66062;52.464;16.922;2023-08-21T09:36:40;4.30;;;1.60;;
77109;SDS011;66062;52.464;16.922;2023-08-21T09:41:31;5.97;;;1.40;;
77109;SDS011;66062;52.464;16.922;2023-08-21T09:44:00;6.35;;;1.40;;
77109;SDS011;66062;52.464;16.922;2023-08-21T09:46:29;2.78;;;1.30;;
77109;SDS011;66062;52.464;16.922;2023-08-21T09:48:54;3.00;;;1.40;;
77109;SDS011;66062;52.464;16.922;2023-08-21T09:51:20;5.20;;;1.65;;
77109;SDS011;66062;52.464;16.922;2023-08-21T09:53:49;3.45;;;1.42;;
77109;SDS011;66062;52.464;16.922;2023-08-21T09:56:17;3.30;;;1.17;;
77109;SDS011;66062;52.464;16.922;2023-08-21T09:58:43;3.70;;;1.50;;
77109;SDS011;66062;52.464;16.922;2023-08-21T10:03:39;5.68;;;1.70;;
77109;SDS011;66062;52.464;16.922;2023-08-21T10:06:05;4.13;;;1.42;;
77109;SDS011;66062;52.464;16.922;2023-08-21T10:08:33;4.28;;;1.38;;
77109;SDS011;66062;52.464;16.922;2023-08-21T10:11:08;7.75;;;1.73;;
77109;SDS011;66062;52.464;16.922;2023-08-21T10:13:36;3.53;;;1.60;;
77109;SDS011;66062;52.464;16.922;2023-08-21T10:16:03;4.30;;;1.33;;
77109;SDS011;66062;52.464;16.922;2023-08-21T10:18:34;3.97;;;1.48;;
77109;SDS011;66062;52.464;16.922;2023-08-21T10:21:11;5.13;;;1.38;;
77109;SDS011;66062;52.464;16.922;2023-08-21T10:23:48;5.20;;;1.38;;
77109;SDS011;66062;52.464;16.922;2023-08-21T10:26:15;4.35;;;1.88;;
77109;SDS011;66062;52.464;16.922;2023-08-21T10:28:50;3.30;;;1.70;;
77109;SDS011;66062;52.464;16.922;2023-08-21T10:31:35;3.92;;;1.52;;
77109;SDS011;66062;52.464;16.922;2023-08-21T10:34:09;3.92;;;1.40;;
77109;SDS011;66062;52.464;16.922;2023-08-21T10:41:52;4.35;;;1.20;;
77109;SDS011;66062;52.464;16.922;2023-08-21T10:44:18;5.90;;;1.85;;
77109;SDS011;66062;52.464;16.922;2023-08-21T10:49:58;5.72;;;1.83;;
77109;SDS011;66062;52.464;16.922;2023-08-21T10:52:36;3.80;;;1.13;;
77109;SDS011;66062;52.464;16.922;2023-08-21T10:55:03;5.35;;;1.85;;
77109;SDS011;66062;52.464;16.922;2023-08-21T11:00:02;5.50;;;1.63;;
77109;SDS011;66062;52.464;16.922;2023-08-21T11:02:29;3.03;;;1.23;;
77109;SDS011;66062;52.464;16.922;2023-08-21T11:04:57;5.78;;;1.60;;
77109;SDS011;66062;52.464;16.922;2023-08-21T11:07:23;6.95;;;1.77;;
77109;SDS011;66062;52.464;16.922;2023-08-21T11:09:48;3.88;;;1.52;;
77109;SDS011;66062;52.464;16.922;2023-08-21T11:14:42;6.47;;;2.03;;
77109;SDS011;66062;52.464;16.922;2023-08-21T11:19:34;8.23;;;1.70;;
77109;SDS011;66062;52.464;16.922;2023-08-21T11:22:00;5.80;;;1.42;;
77109;SDS011;66062;52.464;16.922;2023-08-21T11:24:30;5.70;;;1.60;;
77109;SDS011;66062;52.464;16.922;2023-08-21T11:27:09;4.18;;;1.30;;
77109;SDS011;66062;52.464;16.922;2023-08-21T11:29:38;4.75;;;1.88;;
77109;SDS011;66062;52.464;16.922;2023-08-21T11:32:18;6.18;;;2.10;;
77109;SDS011;66062;52.464;16.922;2023-08-21T11:37:18;9.30;;;1.45;;
77109;SDS011;66062;52.464;16.922;2023-08-21T11:39:47;7.78;;;1.80;;
77109;SDS011;66062;52.464;16.922;2023-08-21T11:42:14;5.55;;;1.60;;
77109;SDS011;66062;52.464;16.922;2023-08-21T11:47:08;7.90;;;1.42;;
77109;SDS011;66062;52.464;16.922;2023-08-21T11:49:35;5.03;;;1.98;;
77109;SDS011;66062;52.464;16.922;2023-08-21T11:52:02;5.38;;;1.83;;
77109;SDS011;66062;52.464;16.922;2023-08-21T11:54:32;7.50;;;2.15;;
77109;SDS011;66062;52.464;16.922;2023-08-21T11:57:04;6.32;;;1.45;;
77109;SDS011;66062;52.464;16.922;2023-08-21T11:59:34;4.35;;;1.52;;
77109;SDS011;66062;52.464;16.922;2023-08-21T12:02:00;5.15;;;1.80;;
77109;SDS011;66062;52.464;16.922;2023-08-21T12:04:33;7.63;;;1.75;;
77109;SDS011;66062;52.464;16.922;2023-08-21T12:06:59;5.93;;;2.03;;
77109;SDS011;66062;52.464;16.922;2023-08-21T12:09:24;6.18;;;1.77;;
77109;SDS011;66062;52.464;16.922;2023-08-21T12:11:50;4.22;;;1.75;;
77109;SDS011;66062;52.464;16.922;2023-08-21T12:14:16;5.88;;;1.52;;
77109;SDS011;66062;52.464;16.922;2023-08-21T12:16:42;5.50;;;2.28;;
77109;SDS011;66062;52.464;16.922;2023-08-21T12:19:07;7.55;;;1.95;;
77109;SDS011;66062;52.464;16.922;2023-08-21T12:21:34;5.30;;;1.63;;
77109;SDS011;66062;52.464;16.922;2023-08-21T12:24:03;5.93;;;1.88;;
77109;SDS011;66062;52.464;16.922;2023-08-21T12:26:29;9.20;;;1.95;;
77109;SDS011;66062;52.464;16.922;2023-08-21T12:28:54;4.72;;;1.73;;
77109;SDS011;66062;52.464;16.922;2023-08-21T12:31:20;5.18;;;1.60;;
77109;SDS011;66062;52.464;16.922;2023-08-21T12:33:45;4.90;;;1.80;;
77109;SDS011;66062;52.464;16.922;2023-08-21T12:36:14;4.90;;;1.88;;
77109;SDS011;66062;52.464;16.922;2023-08-21T12:38:39;6.13;;;1.85;;
77109;SDS011;66062;52.464;16.922;2023-08-21T12:41:04;4.35;;;1.33;;
77109;SDS011;66062;52.464;16.922;2023-08-21T12:43:30;9.10;;;1.77;;
77109;SDS011;66062;52.464;16.922;2023-08-21T12:45:56;6.03;;;1.60;;
77109;SDS011;66062;52.464;16.922;2023-08-21T12:48:22;8.57;;;2.00;;
77109;SDS011;66062;52.464;16.922;2023-08-21T12:50:47;8.85;;;1.88;;
77109;SDS011;66062;52.464;16.922;2023-08-21T12:53:13;5.07;;;1.90;;
77109;SDS011;66062;52.464;16.922;2023-08-21T12:55:38;4.95;;;2.03;;
77109;SDS011;66062;52.464;16.922;2023-08-21T12:58:04;6.57;;;2.35;;
77109;SDS011;66062;52.464;16.922;2023-08-21T13:00:31;6.03;;;1.83;;
77109;SDS011;66062;52.464;16.922;2023-08-21T13:02:57;4.47;;;1.48;;
77109;SDS011;66062;52.464;16.922;2023-08-21T13:05:23;3.72;;;1.80;;
77109;SDS011;66062;52.464;16.922;2023-08-21T13:07:48;6.97;;;1.65;;
77109;SDS011;66062;52.464;16.922;2023-08-21T13:10:14;5.80;;;1.20;;
77109;SDS011;66062;52.464;16.922;2023-08-21T13:12:39;4.47;;;2.17;;
77109;SDS011;66062;52.464;16.922;2023-08-21T13:15:04;6.20;;;1.77;;
77109;SDS011;66062;52.464;16.922;2023-08-21T13:17:32;5.00;;;1.98;;
77109;SDS011;66062;52.464;16.922;2023-08-21T13:19:58;9.07;;;1.92;;
77109;SDS011;66062;52.464;16.922;2023-08-21T13:24:50;4.13;;;1.50;;
77109;SDS011;66062;52.464;16.922;2023-08-21T13:27:15;4.22;;;2.33;;
77109;SDS011;66062;52.464;16.922;2023-08-21T13:29:41;4.40;;;1.48;;
77109;SDS011;66062;52.464;16.922;2023-08-21T13:32:06;5.60;;;1.90;;
77109;SDS011;66062;52.464;16.922;2023-08-21T13:34:32;4.60;;;1.88;;
77109;SDS011;66062;52.464;16.922;2023-08-21T13:36:57;4.43;;;1.33;;
77109;SDS011;66062;52.464;16.922;2023-08-21T13:39:23;3.38;;;1.60;;
77109;SDS011;66062;52.464;16.922;2023-08-21T13:41:48;4.60;;;1.80;;
77109;SDS011;66062;52.464;16.922;2023-08-21T13:44:15;7.97;;;2.10;;
77109;SDS011;66062;52.464;16.922;2023-08-21T13:46:41;6.43;;;2.17;;
77109;SDS011;66062;52.464;16.922;2023-08-21T13:49:06;4.30;;;2.08;;
77109;SDS011;66062;52.464;16.922;2023-08-21T13:51:31;6.63;;;2.20;;
77109;SDS011;66062;52.464;16.922;2023-08-21T13:53:57;5.47;;;3.00;;
77109;SDS011;66062;52.464;16.922;2023-08-21T13:56:22;5.75;;;1.92;;
77109;SDS011;66062;52.464;16.922;2023-08-21T13:58:48;8.35;;;2.20;;
77109;SDS011;66062;52.464;16.922;2023-08-21T14:01:13;4.50;;;1.92;;
77109;SDS011;66062;52.464;16.922;2023-08-21T14:03:39;7.95;;;2.05;;
77109;SDS011;66062;52.464;16.922;2023-08-21T14:06:06;5.82;;;2.10;;
77109;SDS011;66062;52.464;16.922;2023-08-21T14:08:35;9.82;;;2.85;;
77109;SDS011;66062;52.464;16.922;2023-08-21T14:11:00;4.38;;;2.50;;
77109;SDS011;66062;52.464;16.922;2023-08-21T14:13:26;5.13;;;2.38;;
77109;SDS011;66062;52.464;16.922;2023-08-21T14:15:51;4.18;;;2.70;;
77109;SDS011;66062;52.464;16.922;2023-08-21T14:18:16;4.95;;;2.47;;
77109;SDS011;66062;52.464;16.922;2023-08-21T14:20:42;6.35;;;2.95;;
77109;SDS011;66062;52.464;16.922;2023-08-21T14:23:07;7.22;;;3.35;;
77109;SDS011;66062;52.464;16.922;2023-08-21T14:25:35;7.68;;;3.58;;
77109;SDS011;66062;52.464;16.922;2023-08-21T14:28:02;6.47;;;3.47;;
77109;SDS011;66062;52.464;16.922;2023-08-21T14:30:28;8.35;;;3.33;;
77109;SDS011;66062;52.464;16.922;2023-08-21T14:32:53;4.95;;;2.80;;
77109;SDS011;66062;52.464;16.922;2023-08-21T14:35:19;5.00;;;2.40;;
77109;SDS011;66062;52.464;16.922;2023-08-21T14:37:44;4.53;;;2.50;;
77109;SDS011;66062;52.464;16.922;2023-08-21T14:40:09;6.55;;;3.22;;
77109;SDS011;66062;52.464;16.922;2023-08-21T14:42:36;4.03;;;2.45;;
77109;SDS011;66062;52.464;16.922;2023-08-21T14:45:02;7.03;;;2.25;;
77109;SDS011;66062;52.464;16.922;2023-08-21T14:49:53;4.63;;;2.03;;
77109;SDS011;66062;52.464;16.922;2023-08-21T14:54:45;5.28;;;2.40;;
77109;SDS011;66062;52.464;16.922;2023-08-21T14:57:12;5.78;;;2.28;;
77109;SDS011;66062;52.464;16.922;2023-08-21T14:59:38;6.00;;;2.10;;
77109;SDS011;66062;52.464;16.922;2023-08-21T15:02:03;9.32;;;2.95;;
77109;SDS011;66062;52.464;16.922;2023-08-21T15:04:29;4.38;;;2.15;;
77109;SDS011;66062;52.464;16.922;2023-08-21T15:06:54;6.38;;;2.63;;
77109;SDS011;66062;52.464;16.922;2023-08-21T15:09:20;6.35;;;2.10;;
77109;SDS011;66062;52.464;16.922;2023-08-21T15:11:45;7.22;;;2.42;;
77109;SDS011;66062;52.464;16.922;2023-08-21T15:14:11;5.30;;;2.63;;
77109;SDS011;66062;52.464;16.922;2023-08-21T15:16:37;10.15;;;3.25;;